createdAt,value
2022-11-21T00:01:17.893Z,10.17
2022-11-21T00:03:44.545Z,7.47
2022-11-21T00:06:11.139Z,7.57
2022-11-21T00:08:37.744Z,7.97
2022-11-21T00:11:04.335Z,7.23
2022-11-21T00:13:30.935Z,6.03
2022-11-21T00:16:03.759Z,5.47
2022-11-21T00:18:30.425Z,4.40
2022-11-21T00:20:57.072Z,5.97
2022-11-21T00:23:28.206Z,3.90
2022-11-21T00:25:54.803Z,9.47
2022-11-21T00:28:21.400Z,6.90
2022-11-21T00:30:48.047Z,6.23
2022-11-21T00:33:14.755Z,4.63
2022-11-21T00:35:41.444Z,5.87
2022-11-21T00:38:08.062Z,3.80
2022-11-21T00:40:34.689Z,6.47
2022-11-21T00:43:01.326Z,6.23
2022-11-21T00:45:28.921Z,3.57
2022-11-21T00:47:55.543Z,3.93
2022-11-21T00:50:22.211Z,5.20
2022-11-21T00:52:48.828Z,4.70
2022-11-21T00:55:15.601Z,4.67
2022-11-21T00:57:42.215Z,3.10
2022-11-21T01:00:09.677Z,5.63
2022-11-21T01:02:36.306Z,4.60
2022-11-21T01:05:03.175Z,4.20
2022-11-21T01:07:30.225Z,3.90
2022-11-21T01:09:56.872Z,6.20
2022-11-21T01:12:24.041Z,4.00
2022-11-21T01:14:50.728Z,4.70
2022-11-21T01:17:17.667Z,4.90
2022-11-21T01:19:44.798Z,3.77
2022-11-21T01:22:11.397Z,5.13
2022-11-21T01:24:38.044Z,7.70
2022-11-21T01:27:04.711Z,4.97
2022-11-21T01:29:31.309Z,9.83
2022-11-21T01:31:57.996Z,6.03
2022-11-21T01:34:24.746Z,5.27
2022-11-21T01:36:51.571Z,5.80
2022-11-21T01:39:18.157Z,7.40
2022-11-21T01:41:45.822Z,4.93
2022-11-21T01:44:24.921Z,5.67
2022-11-21T01:46:53.012Z,2.60
2022-11-21T01:49:21.630Z,5.23
2022-11-21T01:51:57.958Z,4.47
2022-11-21T01:54:32.150Z,4.40
2022-11-21T01:57:08.255Z,2.43
2022-11-21T01:59:44.645Z,4.40
2022-11-21T02:02:15.378Z,3.33
2022-11-21T02:04:43.530Z,5.53
2022-11-21T02:07:13.068Z,3.10
2022-11-21T02:09:42.108Z,3.87
2022-11-21T02:12:15.566Z,2.87
2022-11-21T02:15:02.154Z,6.00
2022-11-21T02:17:30.983Z,4.53
2022-11-21T02:20:09.226Z,3.73
2022-11-21T02:23:05.708Z,5.17
2022-11-21T02:25:36.355Z,4.53
2022-11-21T02:28:06.269Z,3.33
2022-11-21T02:30:36.860Z,8.30
2022-11-21T02:33:03.836Z,4.50
2022-11-21T02:35:30.587Z,4.90
2022-11-21T02:38:12.263Z,4.47
2022-11-21T02:40:48.979Z,3.90
2022-11-21T02:43:28.383Z,4.10
2022-11-21T02:45:55.192Z,5.43
2022-11-21T02:48:21.855Z,4.27
2022-11-21T02:50:48.525Z,2.70
2022-11-21T02:53:18.168Z,7.20
2022-11-21T02:55:45.268Z,4.37
2022-11-21T02:58:12.575Z,4.37
2022-11-21T03:00:41.570Z,4.80
2022-11-21T03:03:08.915Z,2.87
2022-11-21T03:05:36.048Z,4.47
2022-11-21T03:08:03.626Z,3.07
2022-11-21T03:10:30.311Z,4.80
2022-11-21T03:13:01.042Z,2.07
2022-11-21T03:15:35.076Z,4.43
2022-11-21T03:18:02.947Z,4.77
2022-11-21T03:20:34.672Z,4.10
2022-11-21T03:23:02.084Z,4.37
2022-11-21T03:25:29.160Z,2.10
2022-11-21T03:27:55.906Z,1.83
2022-11-21T03:30:24.770Z,2.17
2022-11-21T03:32:54.702Z,3.00
2022-11-21T03:35:21.315Z,3.53
2022-11-21T03:37:49.031Z,2.30
2022-11-21T03:40:15.655Z,3.23
2022-11-21T03:42:42.343Z,3.00
2022-11-21T03:45:09.311Z,3.30
2022-11-21T03:47:36.001Z,2.83
2022-11-21T03:50:02.682Z,2.47
2022-11-21T03:52:30.381Z,6.07
2022-11-21T03:54:57.049Z,3.13
2022-11-21T03:57:23.669Z,4.37
2022-11-21T03:59:50.364Z,5.43
2022-11-21T04:02:17.019Z,3.53
2022-11-21T04:04:43.641Z,3.80
2022-11-21T04:07:10.374Z,3.73
2022-11-21T04:09:37.234Z,1.73
2022-11-21T04:12:07.672Z,2.47
2022-11-21T04:14:34.979Z,3.30
2022-11-21T04:17:01.988Z,1.87
2022-11-21T04:19:28.815Z,1.93
2022-11-21T04:21:55.455Z,2.23
2022-11-21T04:24:22.243Z,4.77
2022-11-21T04:26:48.885Z,3.77
2022-11-21T04:29:15.896Z,2.83
2022-11-21T04:31:42.718Z,6.37
2022-11-21T04:34:09.397Z,1.73
2022-11-21T04:36:36.360Z,2.43
2022-11-21T04:39:04.089Z,3.13
2022-11-21T04:41:30.707Z,3.20
2022-11-21T04:43:57.300Z,1.87
2022-11-21T04:46:24.203Z,3.00
2022-11-21T04:48:51.229Z,5.30
2022-11-21T04:51:18.292Z,1.30
2022-11-21T04:53:45.127Z,2.30
2022-11-21T04:56:16.145Z,5.57
2022-11-21T04:58:44.725Z,1.77
2022-11-21T05:01:11.817Z,1.93
2022-11-21T05:03:38.942Z,2.30
2022-11-21T05:06:05.916Z,2.30
2022-11-21T05:08:32.565Z,3.87
2022-11-21T05:11:18.091Z,1.60
2022-11-21T05:13:44.851Z,2.10
2022-11-21T05:16:11.488Z,2.57
2022-11-21T05:18:38.356Z,1.93
2022-11-21T05:21:05.861Z,1.63
2022-11-21T05:23:32.547Z,4.37
2022-11-21T05:25:59.134Z,1.83
2022-11-21T05:28:25.828Z,2.10
2022-11-21T05:30:52.495Z,2.17
2022-11-21T05:33:19.275Z,2.50
2022-11-21T05:35:46.441Z,2.10
2022-11-21T05:38:13.125Z,1.40
2022-11-21T05:40:40.011Z,3.27
2022-11-21T05:43:25.705Z,2.33
2022-11-21T05:45:52.907Z,1.93
2022-11-21T05:48:19.589Z,1.73
2022-11-21T05:50:49.726Z,2.93
2022-11-21T05:53:17.519Z,3.23
2022-11-21T05:55:44.567Z,2.57
2022-11-21T05:58:11.505Z,5.17
2022-11-21T06:00:38.547Z,3.33
2022-11-21T06:03:25.069Z,3.47
2022-11-21T06:05:52.021Z,2.30
2022-11-21T06:08:19.135Z,3.70
2022-11-21T06:10:45.809Z,3.60
2022-11-21T06:13:24.530Z,4.97
2022-11-21T06:15:58.842Z,5.47
2022-11-21T06:18:26.714Z,3.60
2022-11-21T06:20:53.769Z,3.87
2022-11-21T06:23:20.895Z,3.47
2022-11-21T06:25:47.487Z,4.87
2022-11-21T06:28:14.260Z,4.00
2022-11-21T06:30:40.877Z,5.23
2022-11-21T06:33:07.991Z,2.27
2022-11-21T06:35:38.645Z,3.47
2022-11-21T06:38:05.396Z,7.23
2022-11-21T06:40:32.534Z,2.63
2022-11-21T06:42:59.116Z,6.57
2022-11-21T06:45:26.220Z,3.30
2022-11-21T06:47:52.859Z,6.50
2022-11-21T06:50:19.767Z,4.17
2022-11-21T06:52:46.577Z,4.50
2022-11-21T06:55:14.157Z,2.40
2022-11-21T06:57:40.817Z,6.27
2022-11-21T07:00:08.230Z,5.43
2022-11-21T07:02:34.852Z,8.33
2022-11-21T07:05:01.554Z,4.00
2022-11-21T07:07:30.361Z,5.80
2022-11-21T07:09:57.135Z,4.87
2022-11-21T07:12:42.451Z,2.30
2022-11-21T07:15:10.253Z,4.47
2022-11-21T07:17:37.044Z,5.33
2022-11-21T07:20:04.023Z,5.70
2022-11-21T07:22:30.654Z,2.33
2022-11-21T07:24:57.394Z,3.50
2022-11-21T07:27:24.088Z,4.47
2022-11-21T07:29:51.916Z,4.77
2022-11-21T07:32:18.787Z,4.03
2022-11-21T07:34:45.397Z,6.13
2022-11-21T07:37:12.126Z,5.87
2022-11-21T07:39:41.578Z,4.97
2022-11-21T07:42:08.174Z,5.87
2022-11-21T07:44:36.310Z,2.70
2022-11-21T07:47:03.017Z,4.70
2022-11-21T07:49:29.977Z,7.67
2022-11-21T07:51:56.924Z,3.37
2022-11-21T07:54:23.624Z,2.43
2022-11-21T07:56:51.332Z,3.70
2022-11-21T07:59:19.186Z,6.77
2022-11-21T08:01:45.959Z,6.37
2022-11-21T08:04:12.777Z,5.93
2022-11-21T08:06:39.492Z,6.00
2022-11-21T08:09:06.101Z,5.17
2022-11-21T08:11:32.755Z,7.10
2022-11-21T08:13:59.649Z,6.17
2022-11-21T08:16:28.020Z,7.83
2022-11-21T08:18:54.816Z,10.50
2022-11-21T08:21:21.418Z,10.80
2022-11-21T08:23:48.592Z,8.17
2022-11-21T08:26:15.199Z,6.97
2022-11-21T08:28:41.777Z,6.20
2022-11-21T08:31:08.934Z,5.60
2022-11-21T08:33:35.805Z,6.77
2022-11-21T08:36:06.917Z,4.93
2022-11-21T08:38:33.833Z,4.53
2022-11-21T08:41:18.848Z,5.30
2022-11-21T08:43:45.673Z,6.13
2022-11-21T08:46:12.491Z,6.03
2022-11-21T08:48:39.157Z,7.53
2022-11-21T08:51:05.790Z,3.80
2022-11-21T08:53:32.513Z,3.63
2022-11-21T08:56:04.005Z,3.40
2022-11-21T08:58:31.278Z,4.68
2022-11-21T09:01:00.385Z,3.07
2022-11-21T09:03:31.030Z,5.23
2022-11-21T09:05:59.236Z,4.87
2022-11-21T09:08:26.448Z,4.57
2022-11-21T09:10:53.308Z,2.93
2022-11-21T09:13:20.287Z,4.63
2022-11-21T09:16:09.213Z,3.03
2022-11-21T09:18:36.265Z,5.50
2022-11-21T09:21:02.938Z,5.77
2022-11-21T09:23:29.551Z,2.23
2022-11-21T09:25:56.188Z,6.20
2022-11-21T09:28:22.776Z,6.07
2022-11-21T09:30:49.389Z,4.10
2022-11-21T09:33:19.516Z,5.17
2022-11-21T09:35:46.099Z,5.43
2022-11-21T09:38:12.818Z,4.30
2022-11-21T09:40:46.087Z,6.90
2022-11-21T09:43:35.992Z,3.93
2022-11-21T09:46:09.998Z,9.17
2022-11-21T09:48:48.633Z,4.63
2022-11-21T09:51:18.467Z,5.67
2022-11-21T09:54:10.117Z,10.43
2022-11-21T09:56:40.939Z,7.53
2022-11-21T09:59:32.837Z,7.67
2022-11-21T10:01:59.732Z,6.70
2022-11-21T10:04:27.555Z,5.77
2022-11-21T10:07:11.258Z,9.27
2022-11-21T10:09:59.405Z,7.03
2022-11-21T10:12:55.312Z,4.07
2022-11-21T10:15:22.279Z,4.33
2022-11-21T10:18:19.235Z,12.13
2022-11-21T10:20:54.870Z,3.73
2022-11-21T10:23:49.632Z,4.87
2022-11-21T10:26:21.934Z,7.80
2022-11-21T10:28:58.287Z,6.73
2022-11-21T10:31:30.894Z,6.10
2022-11-21T10:34:03.220Z,4.33
2022-11-21T10:36:36.129Z,5.53
2022-11-21T10:39:12.933Z,7.23
2022-11-21T10:41:48.380Z,7.00
2022-11-21T10:44:43.488Z,6.67
2022-11-21T10:47:27.965Z,10.70
2022-11-21T10:50:18.775Z,8.77
2022-11-21T10:52:49.884Z,5.80
2022-11-21T10:55:18.408Z,4.87
2022-11-21T10:57:49.560Z,4.67
2022-11-21T11:00:27.347Z,4.97
2022-11-21T11:02:57.257Z,5.63
2022-11-21T11:05:29.018Z,6.07
2022-11-21T11:08:15.046Z,4.03
2022-11-21T11:11:02.259Z,6.33
2022-11-21T11:13:46.213Z,5.33
2022-11-21T11:16:21.230Z,3.27
2022-11-21T11:18:57.392Z,3.83
2022-11-21T11:21:46.479Z,6.93
2022-11-21T11:24:13.067Z,6.97
2022-11-21T11:26:49.473Z,7.40
2022-11-21T11:29:20.495Z,3.73
2022-11-21T11:31:53.491Z,5.70
2022-11-21T11:34:20.752Z,5.70
2022-11-21T11:37:04.145Z,3.93
2022-11-21T11:40:01.324Z,6.93
2022-11-21T11:43:07.045Z,10.90
2022-11-21T11:46:15.047Z,4.53
2022-11-21T11:49:03.603Z,4.97
2022-11-21T11:51:39.936Z,8.77
2022-11-21T11:54:17.591Z,12.80
2022-11-21T11:56:45.490Z,4.03
2022-11-21T11:59:12.114Z,5.23
2022-11-21T12:02:01.099Z,6.90
2022-11-21T12:04:33.769Z,4.53
2022-11-21T12:10:02.371Z,7.10
2022-11-21T12:12:43.677Z,7.73
2022-11-21T12:15:32.590Z,5.53
2022-11-21T12:18:17.983Z,3.83
2022-11-21T12:20:59.892Z,5.27
2022-11-21T12:23:51.418Z,5.67
2022-11-21T12:27:05.976Z,4.93
2022-11-21T12:29:56.711Z,8.67
2022-11-21T12:32:45.252Z,7.10
2022-11-21T12:35:40.628Z,6.97
2022-11-21T12:38:44.571Z,3.80
2022-11-21T12:41:41.551Z,6.97
2022-11-21T12:44:47.051Z,6.37
2022-11-21T12:47:55.453Z,4.20
2022-11-21T12:50:51.475Z,2.40
2022-11-21T12:53:51.772Z,8.13
2022-11-21T12:56:32.503Z,4.93
2022-11-21T12:59:00.903Z,9.03
2022-11-21T13:01:43.952Z,9.77
2022-11-21T13:04:18.131Z,5.30
2022-11-21T13:06:48.192Z,4.97
2022-11-21T13:09:22.153Z,7.37
2022-11-21T13:12:06.178Z,5.93
2022-11-21T13:14:54.973Z,11.30
2022-11-21T13:17:28.500Z,8.57
2022-11-21T13:20:22.821Z,5.50
2022-11-21T13:22:55.152Z,5.43
2022-11-21T13:25:43.860Z,5.73
2022-11-21T13:28:13.195Z,8.53
2022-11-21T13:30:56.800Z,5.93
2022-11-21T13:33:36.074Z,4.47
2022-11-21T13:36:13.349Z,2.87
2022-11-21T13:38:55.410Z,4.20
2022-11-21T13:41:53.179Z,4.20
2022-11-21T13:44:32.186Z,7.20
2022-11-21T13:47:20.345Z,5.67
2022-11-21T13:50:07.858Z,2.80
2022-11-21T13:52:45.237Z,6.53
2022-11-21T13:55:39.421Z,6.40
2022-11-21T13:58:24.407Z,5.73
2022-11-21T14:01:01.231Z,7.10
2022-11-21T14:03:38.110Z,7.23
2022-11-21T14:06:13.624Z,10.23
2022-11-21T14:08:40.693Z,6.70
2022-11-21T14:11:22.217Z,5.23
2022-11-21T14:13:49.749Z,6.73
2022-11-21T14:16:41.256Z,6.33
2022-11-21T14:19:14.870Z,5.17
2022-11-21T14:21:46.338Z,8.47
2022-11-21T14:24:18.704Z,7.60
2022-11-21T14:26:53.319Z,2.93
2022-11-21T14:29:26.673Z,7.17
2022-11-21T14:31:54.162Z,10.47
2022-11-21T14:34:28.635Z,10.53
2022-11-21T14:36:59.111Z,8.13
2022-11-21T14:39:38.763Z,10.17
2022-11-21T14:42:14.937Z,15.97
2022-11-21T14:44:41.565Z,13.87
2022-11-21T14:47:26.231Z,22.97
2022-11-21T14:49:56.096Z,22.70
2022-11-21T14:52:30.414Z,22.13
2022-11-21T14:57:48.107Z,19.33
2022-11-21T15:03:04.183Z,13.40
2022-11-21T15:06:04.073Z,17.50
2022-11-21T15:08:55.804Z,9.17
2022-11-21T15:11:11.976Z,6.13
2022-11-21T15:14:06.479Z,7.30
2022-11-21T15:16:26.839Z,8.77
2022-11-21T15:18:53.534Z,12.13
2022-11-21T15:21:20.347Z,10.57
2022-11-21T15:23:47.752Z,8.77
2022-11-21T15:26:35.578Z,16.53
2022-11-21T15:29:02.813Z,9.73
2022-11-21T15:31:29.647Z,8.80
2022-11-21T15:37:05.745Z,12.17
2022-11-21T15:39:33.245Z,13.80
2022-11-21T15:42:33.813Z,20.30
2022-11-21T15:45:03.549Z,12.93
2022-11-21T15:47:30.816Z,12.23
2022-11-21T15:49:57.842Z,10.10
2022-11-21T15:52:24.728Z,20.63
2022-11-21T15:54:51.316Z,27.93
2022-11-21T15:59:50.400Z,11.40
2022-11-21T16:02:17.253Z,14.67
2022-11-21T16:04:43.937Z,13.93
2022-11-21T16:07:10.756Z,10.40
2022-11-21T16:09:38.630Z,9.40
2022-11-21T16:12:05.434Z,13.17
2022-11-21T16:14:32.142Z,9.30
2022-11-21T16:16:58.819Z,11.37
2022-11-21T16:19:25.904Z,11.30
2022-11-21T16:21:53.703Z,11.47
2022-11-21T16:24:20.759Z,9.30
2022-11-21T16:26:49.463Z,8.00
2022-11-21T16:29:16.073Z,9.67
2022-11-21T16:31:42.807Z,7.07
2022-11-21T16:34:09.463Z,11.37
2022-11-21T16:36:36.260Z,7.03
2022-11-21T16:39:08.670Z,6.20
2022-11-21T16:41:36.953Z,10.70
2022-11-21T16:44:03.922Z,8.53
2022-11-21T16:46:30.939Z,11.70
2022-11-21T16:49:00.591Z,11.07
2022-11-21T16:51:28.039Z,9.70
2022-11-21T16:53:56.332Z,7.77
2022-11-21T16:56:23.630Z,10.67
2022-11-21T16:58:50.465Z,6.77
2022-11-21T17:01:20.282Z,13.77
2022-11-21T17:03:49.242Z,7.60
2022-11-21T17:06:18.631Z,10.20
2022-11-21T17:08:47.120Z,9.90
2022-11-21T17:11:22.915Z,7.17
2022-11-21T17:13:51.144Z,9.67
2022-11-21T17:16:19.653Z,8.50
2022-11-21T17:18:46.603Z,8.93
2022-11-21T17:21:15.780Z,8.67
2022-11-21T17:23:44.537Z,7.73
2022-11-21T17:26:13.771Z,8.87
2022-11-21T17:28:45.190Z,12.10
2022-11-21T17:31:15.215Z,7.67
2022-11-21T17:33:42.941Z,8.20
2022-11-21T17:36:14.739Z,7.40
2022-11-21T17:38:47.110Z,7.77
2022-11-21T17:41:16.825Z,8.93
2022-11-21T17:43:44.843Z,11.70
2022-11-21T17:46:19.937Z,7.70
2022-11-21T17:48:54.572Z,8.50
2022-11-21T17:51:25.437Z,11.60
2022-11-21T17:53:52.936Z,6.30
2022-11-21T17:56:26.032Z,11.17
2022-11-21T17:58:52.986Z,8.07
2022-11-21T18:01:20.579Z,14.67
2022-11-21T18:03:53.228Z,16.23
2022-11-21T18:06:20.338Z,20.23
2022-11-21T18:08:48.874Z,13.10
2022-11-21T18:11:19.201Z,9.17
2022-11-21T18:13:46.383Z,9.30
2022-11-21T18:16:15.447Z,13.17
2022-11-21T18:18:42.436Z,6.20
2022-11-21T18:21:12.030Z,10.97
2022-11-21T18:23:39.285Z,13.50
2022-11-21T18:26:08.591Z,13.37
2022-11-21T18:28:35.221Z,9.57
2022-11-21T18:31:10.068Z,14.20
2022-11-21T18:33:37.782Z,24.13
2022-11-21T18:36:06.249Z,16.33
2022-11-21T18:38:49.296Z,6.70
2022-11-21T18:41:28.246Z,6.30
2022-11-21T18:43:59.901Z,9.03
2022-11-21T18:46:28.821Z,7.90
2022-11-21T18:49:06.256Z,6.77
2022-11-21T18:51:36.448Z,7.20
2022-11-21T18:54:07.105Z,6.83
2022-11-21T18:56:34.780Z,10.40
2022-11-21T18:59:03.248Z,11.63
2022-11-21T19:01:31.676Z,11.23
2022-11-21T19:03:59.141Z,18.23
2022-11-21T19:06:27.148Z,16.30
2022-11-21T19:08:55.632Z,14.93
2022-11-21T19:11:24.563Z,14.23
2022-11-21T19:13:52.854Z,7.03
2022-11-21T19:16:24.259Z,6.57
2022-11-21T19:19:18.669Z,8.83
2022-11-21T19:21:38.959Z,13.93
2022-11-21T19:24:16.431Z,5.40
2022-11-21T19:26:43.166Z,7.00
2022-11-21T19:29:10.894Z,10.53
2022-11-21T19:31:44.094Z,5.73
2022-11-21T19:34:13.691Z,7.30
2022-11-21T19:36:40.745Z,7.17
2022-11-21T19:39:07.654Z,7.80
2022-11-21T19:41:34.405Z,5.40
2022-11-21T19:44:02.170Z,5.97
2022-11-21T19:46:31.582Z,11.13
2022-11-21T19:48:59.133Z,10.43
2022-11-21T19:51:32.141Z,10.73
2022-11-21T19:53:59.102Z,7.10
2022-11-21T19:56:26.241Z,7.33
2022-11-21T19:58:55.093Z,9.70
2022-11-21T20:01:27.648Z,10.37
2022-11-21T20:03:58.752Z,7.27
2022-11-21T20:06:28.105Z,5.87
2022-11-21T20:09:00.301Z,6.33
2022-11-21T20:11:28.723Z,9.10
2022-11-21T20:13:55.399Z,3.97
2022-11-21T20:16:30.414Z,6.40
2022-11-21T20:19:02.660Z,9.30
2022-11-21T20:21:30.222Z,7.07
2022-11-21T20:24:00.650Z,7.27
2022-11-21T20:26:27.787Z,8.03
2022-11-21T20:28:54.754Z,7.20
2022-11-21T20:31:24.848Z,5.07
2022-11-21T20:33:53.572Z,6.60
2022-11-21T20:36:36.321Z,5.50
2022-11-21T20:39:08.731Z,6.53
2022-11-21T20:41:36.848Z,7.13
2022-11-21T20:46:55.908Z,12.00
2022-11-21T20:49:22.638Z,7.47
2022-11-21T20:54:37.903Z,6.57
2022-11-21T20:57:04.493Z,5.83
2022-11-21T20:59:31.441Z,8.10
2022-11-21T21:01:58.320Z,10.00
2022-11-21T21:04:25.227Z,9.13
2022-11-21T21:06:51.949Z,5.83
2022-11-21T21:09:18.544Z,4.87
2022-11-21T21:11:53.373Z,6.97
2022-11-21T21:14:23.510Z,7.30
2022-11-21T21:16:50.466Z,8.00
2022-11-21T21:19:17.992Z,5.63
2022-11-21T21:21:44.753Z,5.63
2022-11-21T21:24:12.535Z,6.40
2022-11-21T21:26:43.181Z,11.57
2022-11-21T21:29:12.200Z,5.13
2022-11-21T21:31:38.976Z,7.10
2022-11-21T21:34:05.740Z,6.77
2022-11-21T21:36:32.832Z,9.93
2022-11-21T21:39:00.425Z,5.60
2022-11-21T21:41:28.742Z,6.93
2022-11-21T21:43:57.136Z,4.57
2022-11-21T21:46:26.139Z,7.67
2022-11-21T21:48:57.548Z,11.10
2022-11-21T21:51:26.932Z,7.27
2022-11-21T21:53:54.533Z,7.67
2022-11-21T21:56:22.778Z,9.50
2022-11-21T21:58:50.319Z,8.70
2022-11-21T22:01:20.071Z,9.13
2022-11-21T22:03:47.647Z,6.53
2022-11-21T22:06:18.384Z,6.40
2022-11-21T22:08:46.634Z,7.13
2022-11-21T22:11:14.235Z,10.03
2022-11-21T22:13:45.913Z,6.13
2022-11-21T22:16:13.770Z,12.37
2022-11-21T22:18:41.058Z,14.00
2022-11-21T22:21:16.821Z,8.87
2022-11-21T22:24:02.976Z,8.43
2022-11-21T22:26:32.076Z,10.43
2022-11-21T22:28:58.708Z,6.23
2022-11-21T22:31:25.383Z,7.93
2022-11-21T22:33:52.375Z,10.13
2022-11-21T22:36:19.558Z,14.07
2022-11-21T22:38:46.470Z,10.03
2022-11-21T22:41:17.299Z,11.30
2022-11-21T22:43:49.919Z,7.17
2022-11-21T22:46:16.860Z,7.67
2022-11-21T22:48:43.424Z,6.73
2022-11-21T22:51:13.810Z,7.17
2022-11-21T22:53:40.972Z,16.27
2022-11-21T22:56:10.532Z,12.47
2022-11-21T22:58:39.621Z,9.50
2022-11-21T23:01:12.400Z,15.27
2022-11-21T23:03:40.099Z,10.00
2022-11-21T23:06:11.085Z,10.60
2022-11-21T23:08:38.317Z,9.83
2022-11-21T23:11:14.720Z,8.23
2022-11-21T23:13:44.449Z,7.10
2022-11-21T23:16:11.824Z,9.00
2022-11-21T23:18:38.974Z,6.83
2022-11-21T23:21:06.389Z,6.57
2022-11-21T23:23:33.336Z,8.23
2022-11-21T23:26:00.068Z,6.20
2022-11-21T23:28:26.925Z,7.87
2022-11-21T23:30:53.548Z,7.60
2022-11-21T23:33:20.392Z,7.30
2022-11-21T23:35:47.605Z,9.30
2022-11-21T23:38:16.264Z,13.63
2022-11-21T23:40:45.979Z,10.60
2022-11-21T23:43:13.745Z,7.50
2022-11-21T23:45:40.580Z,11.70
2022-11-21T23:48:07.215Z,9.07
2022-11-21T23:50:33.790Z,5.97
2022-11-21T23:53:00.504Z,11.93
2022-11-21T23:55:27.199Z,22.53
2022-11-21T23:57:53.852Z,12.57
